Time;durP1;ratioP1;P1;durP2;ratioP2;P2;SDS_P1;SDS_P2;PMS_P1;PMS_P2;Temp;Humidity;BMP_temperature;BMP_pressure;BME280_temperature;BME280_humidity;BME280_pressure;Samples;Min_cycle;Max_cycle;Signal;HPM_P1;HPM_P2
2022/11/11 08:14:00;;;;;;;5.18;2.42;;;8.00;99.90;;;;;;4829274;29;20495;-81
2022/11/11 08:16:44;;;;;;;5.30;2.80;;;8.00;99.90;;;;;;4827169;29;20102;-81
2022/11/11 08:19:28;;;;;;;5.10;2.53;;;8.10;99.90;;;;;;4840484;29;20064;-81
2022/11/11 08:22:11;;;;;;;4.68;2.47;;;8.10;99.90;;;;;;4842210;29;20188;-82
2022/11/11 08:24:55;;;;;;;7.63;4.05;;;8.20;99.90;;;;;;4834678;29;20472;-81
2022/11/11 08:27:40;;;;;;;6.88;3.30;;;8.20;99.90;;;;;;4844235;29;20049;-81
2022/11/11 08:30:24;;;;;;;8.50;4.63;;;8.20;99.90;;;;;;4828319;29;20452;-80
2022/11/11 08:33:09;;;;;;;7.75;4.00;;;8.30;99.90;;;;;;4834516;29;20056;-80
2022/11/11 08:35:57;;;;;;;7.20;3.20;;;8.30;99.90;;;;;;4828337;29;20049;-81
2022/11/11 08:38:41;;;;;;;5.30;3.45;;;8.30;99.90;;;;;;4822411;29;21170;-81
2022/11/11 08:41:26;;;;;;;4.13;2.83;;;8.30;99.90;;;;;;4806795;29;20500;-84
2022/11/11 08:44:10;;;;;;;4.88;3.17;;;8.40;99.90;;;;;;4830634;29;20092;-83
2022/11/11 08:46:54;;;;;;;5.75;2.70;;;8.40;99.90;;;;;;4826569;29;20998;-82
2022/11/11 08:49:38;;;;;;;4.65;3.17;;;8.50;99.90;;;;;;4825391;29;20109;-83
2022/11/11 08:52:22;;;;;;;4.90;2.63;;;8.50;99.90;;;;;;4823255;29;20088;-81
2022/11/11 08:55:06;;;;;;;4.22;2.35;;;8.50;99.90;;;;;;4830779;29;20102;-84
2022/11/11 08:57:58;;;;;;;5.00;3.28;;;8.60;99.90;;;;;;4823922;29;20588;-86
2022/11/11 09:00:43;;;;;;;5.78;3.00;;;8.70;99.90;;;;;;4837806;29;20084;-83
2022/11/11 09:03:27;;;;;;;3.97;2.50;;;8.80;99.90;;;;;;4826076;29;20082;-83
2022/11/11 09:06:12;;;;;;;6.32;2.63;;;8.80;99.90;;;;;;4836258;29;20528;-82
2022/11/11 09:08:56;;;;;;;4.65;2.05;;;8.90;99.90;;;;;;4825730;29;20052;-84
2022/11/11 09:11:41;;;;;;;5.38;2.88;;;8.90;99.90;;;;;;4835551;29;20069;-81
2022/11/11 09:14:24;;;;;;;5.07;2.05;;;9.00;99.90;;;;;;4824955;29;20227;-84
2022/11/11 09:17:09;;;;;;;5.30;2.65;;;9.10;99.90;;;;;;4837398;29;20045;-82
2022/11/11 09:19:53;;;;;;;5.15;2.67;;;9.20;99.90;;;;;;4827195;29;20076;-82
2022/11/11 09:22:47;;;;;;;5.30;2.08;;;9.30;99.90;;;;;;4830269;29;20053;-86
2022/11/11 09:25:31;;;;;;;5.63;2.38;;;9.40;99.90;;;;;;4832520;29;20118;-85
2022/11/11 09:28:15;;;;;;;3.03;1.42;;;9.40;99.90;;;;;;4825999;29;20044;-85
2022/11/11 09:31:00;;;;;;;6.25;2.42;;;9.50;99.90;;;;;;4829262;29;20059;-85
2022/11/11 09:33:45;;;;;;;4.97;3.10;;;9.50;99.90;;;;;;4818675;29;20078;-85
2022/11/11 09:36:29;;;;;;;4.88;2.17;;;9.50;99.90;;;;;;4830772;29;20044;-84
2022/11/11 09:39:13;;;;;;;5.72;2.58;;;9.60;99.90;;;;;;4824709;29;20109;-85
2022/11/11 09:42:32;;;;;;;5.55;1.65;;;9.80;99.90;;;;;;4822888;29;20084;-84
2022/11/11 09:45:35;;;;;;;4.30;1.63;;;9.90;99.90;;;;;;4824639;29;20141;-84
2022/11/11 09:48:45;;;;;;;5.15;2.00;;;10.00;99.90;;;;;;4824675;29;20450;-86
2022/11/11 09:51:39;;;;;;;4.18;2.00;;;10.10;99.90;;;;;;4836482;29;20125;-85
2022/11/11 09:54:53;;;;;;;5.68;2.35;;;10.20;99.90;;;;;;4827895;29;20064;-84
2022/11/11 09:57:44;;;;;;;4.25;2.45;;;10.40;99.90;;;;;;4829139;29;20390;-83
2022/11/11 10:00:29;;;;;;;;;;;10.50;99.90;;;;;;4824883;29;20064;-82
2022/11/11 10:03:18;;;;;;;3.40;1.25;;;10.50;99.90;;;;;;4822874;29;19927;-85
2022/11/11 10:06:17;;;;;;;8.02;1.52;;;10.70;99.90;;;;;;4834881;29;20060;-86
2022/11/11 10:09:16;;;;;;;3.03;0.90;;;10.70;99.90;;;;;;4835964;29;20453;-84
2022/11/11 10:12:06;;;;;;;3.80;1.33;;;10.80;99.90;;;;;;4828102;29;20406;-83
2022/11/11 10:14:51;;;;;;;2.65;0.70;;;10.90;99.90;;;;;;4824390;29;20056;-83
2022/11/11 10:18:04;;;;;;;3.78;1.15;;;10.90;99.90;;;;;;4841738;29;20086;-84
2022/11/11 10:20:53;;;;;;;3.03;1.17;;;11.10;99.90;;;;;;4817142;29;20115;-84
2022/11/11 10:23:38;;;;;;;4.05;0.80;;;11.20;99.90;;;;;;4846289;29;20089;-85
2022/11/11 10:26:37;;;;;;;2.78;0.82;;;11.40;99.90;;;;;;4833494;29;20141;-85
2022/11/11 10:29:24;;;;;;;1.70;0.80;;;11.40;99.90;;;;;;4825898;29;20049;-82
2022/11/11 10:32:31;;;;;;;2.85;1.20;;;11.50;99.90;;;;;;4830024;29;20045;-85
2022/11/11 10:35:18;;;;;;;3.15;0.77;;;11.50;99.90;;;;;;4845238;29;20058;-85
2022/11/11 10:38:09;;;;;;;3.08;1.25;;;11.70;99.90;;;;;;4833460;29;20543;-83
2022/11/11 10:40:53;;;;;;;;;;;11.60;99.90;;;;;;4847908;29;20064;-84
2022/11/11 10:43:37;;;;;;;2.13;0.80;;;11.70;99.90;;;;;;4837327;29;20304;-81
2022/11/11 10:46:37;;;;;;;1.70;0.63;;;11.80;99.90;;;;;;4839083;29;20056;-84
2022/11/11 10:49:24;;;;;;;2.50;0.70;;;11.80;99.90;;;;;;4835674;29;20045;-83
2022/11/11 10:52:26;;;;;;;2.15;0.90;;;11.70;99.90;;;;;;4834545;29;20086;-84
2022/11/11 10:55:49;;;;;;;1.67;0.70;;;11.70;99.90;;;;;;4834478;29;20036;-86
2022/11/11 10:58:42;;;;;;;2.05;0.70;;;11.70;99.90;;;;;;4830704;29;20136;-86
2022/11/11 11:01:36;;;;;;;1.63;0.77;;;11.80;99.90;;;;;;4836617;29;20053;-85
2022/11/11 11:04:26;;;;;;;3.58;0.70;;;11.90;99.90;;;;;;4833192;29;20045;-83
2022/11/11 11:07:16;;;;;;;1.90;0.60;;;11.90;99.90;;;;;;4835412;29;20041;-83
2022/11/11 11:10:04;;;;;;;2.00;0.70;;;12.00;99.90;;;;;;4836255;29;20521;-84
2022/11/11 11:12:57;;;;;;;2.80;0.90;;;12.00;99.90;;;;;;4834392;29;20111;-84
2022/11/11 11:15:48;;;;;;;3.13;0.80;;;11.90;99.90;;;;;;4834990;29;20455;-84
2022/11/11 11:18:32;;;;;;;2.35;0.88;;;11.90;99.90;;;;;;4836808;29;20045;-84
2022/11/11 11:21:16;;;;;;;2.58;0.73;;;11.80;99.90;;;;;;4833368;29;20053;-83
2022/11/11 11:24:00;;;;;;;2.78;0.70;;;11.80;99.90;;;;;;4833925;29;20739;-84
2022/11/11 11:26:46;;;;;;;1.83;0.63;;;11.80;99.90;;;;;;4834898;29;20118;-85
2022/11/11 11:29:37;;;;;;;4.05;1.10;;;11.70;99.90;;;;;;4834802;29;20062;-84
2022/11/11 11:32:31;;;;;;;1.55;0.55;;;11.80;99.90;;;;;;4833043;29;20514;-82
2022/11/11 11:35:42;;;;;;;2.05;0.70;;;11.70;99.90;;;;;;4833249;29;20509;-82
2022/11/11 11:38:41;;;;;;;2.25;0.93;;;11.70;99.90;;;;;;4829616;29;20045;-83
2022/11/11 11:41:41;;;;;;;2.53;0.95;;;11.70;99.90;;;;;;4835575;29;20069;-86
2022/11/11 11:44:25;;;;;;;;;;;11.50;99.90;;;;;;4836271;29;20032;-86
2022/11/11 11:47:43;;;;;;;2.63;0.80;;;11.50;99.90;;;;;;4847266;29;19995;-86
2022/11/11 11:50:51;;;;;;;2.45;0.80;;;11.60;99.90;;;;;;4828025;29;20040;-83
2022/11/11 11:53:48;;;;;;;2.50;1.23;;;11.50;99.90;;;;;;4836748;29;20952;-83
2022/11/11 11:56:45;;;;;;;1.80;0.70;;;11.50;99.90;;;;;;4846074;29;20049;-84
2022/11/11 11:59:42;;;;;;;3.40;1.15;;;11.50;99.90;;;;;;4834434;29;20106;-86
2022/11/11 12:02:40;;;;;;;2.72;0.73;;;11.50;99.90;;;;;;4832881;29;20630;-84
2022/11/11 12:06:02;;;;;;;2.15;0.88;;;11.50;99.90;;;;;;4833116;29;20104;-83
2022/11/11 12:09:21;;;;;;;5.22;1.40;;;11.50;99.90;;;;;;4836543;29;20106;-86
2022/11/11 12:12:13;;;;;;;3.83;0.98;;;11.40;99.90;;;;;;4834281;29;20041;-85
2022/11/11 12:14:57;;;;;;;2.38;0.93;;;11.50;99.90;;;;;;4833825;29;20183;-84
2022/11/11 12:18:06;;;;;;;2.65;0.60;;;11.50;99.90;;;;;;4847570;29;20081;-86
2022/11/11 12:21:12;;;;;;;2.28;0.60;;;11.50;99.90;;;;;;4833269;29;20073;-84
2022/11/11 12:24:13;;;;;;;2.53;0.60;;;11.50;99.90;;;;;;4847598;29;20111;-82
2022/11/11 12:27:21;;;;;;;2.60;0.90;;;11.40;99.90;;;;;;4833617;29;20089;-84
2022/11/11 12:30:15;;;;;;;2.28;0.50;;;11.50;99.90;;;;;;4846615;29;20395;-84
2022/11/11 12:33:17;;;;;;;1.45;0.50;;;11.60;99.90;;;;;;4832348;29;20465;-86
2022/11/11 12:36:15;;;;;;;2.00;0.60;;;11.60;99.90;;;;;;4832257;29;20044;-85
2022/11/11 12:39:10;;;;;;;1.75;0.60;;;11.80;99.90;;;;;;4834698;29;20444;-84
2022/11/11 12:42:06;;;;;;;5.00;0.75;;;12.00;99.90;;;;;;4836594;29;20102;-84
2022/11/11 12:45:13;;;;;;;3.33;0.70;;;12.00;99.90;;;;;;4835216;29;20121;-86
2022/11/11 12:48:23;;;;;;;1.65;0.65;;;12.10;99.90;;;;;;4811601;29;20037;-87
2022/11/11 12:51:30;;;;;;;3.28;0.70;;;12.10;99.90;;;;;;4832240;29;20098;-84
2022/11/11 12:54:20;;;;;;;2.78;0.75;;;12.20;99.90;;;;;;4833822;29;20138;-86
2022/11/11 12:57:22;;;;;;;;;;;12.30;99.90;;;;;;4832601;29;20136;-86
2022/11/11 13:00:24;;;;;;;2.17;0.50;;;12.30;99.90;;;;;;4832612;29;19949;-86
2022/11/11 13:03:26;;;;;;;4.60;1.05;;;12.30;99.90;;;;;;4832886;29;20132;-86
2022/11/11 13:06:34;;;;;;;4.80;0.80;;;12.20;99.90;;;;;;4834595;29;20446;-85
2022/11/11 13:09:35;;;;;;;3.25;0.70;;;12.30;99.90;;;;;;4797108;29;20530;-86
2022/11/11 13:12:30;;;;;;;2.95;0.50;;;12.20;99.90;;;;;;4784536;29;20114;-85
2022/11/11 13:15:22;;;;;;;2.38;1.17;;;12.20;99.90;;;;;;4794516;29;20112;-86
2022/11/11 13:18:22;;;;;;;2.65;0.98;;;12.10;99.90;;;;;;4796500;29;20053;-86
2022/11/11 13:21:19;;;;;;;2.42;0.73;;;12.10;99.90;;;;;;4796675;29;20102;-85
2022/11/11 13:24:08;;;;;;;2.47;0.75;;;12.20;99.90;;;;;;4797404;29;20095;-85
2022/11/11 13:27:19;;;;;;;3.70;0.80;;;12.20;99.90;;;;;;4796415;29;20062;-87
2022/11/11 13:30:37;;;;;;;3.30;0.80;;;12.10;99.90;;;;;;4727690;30;20054;-86
2022/11/11 13:33:26;;;;;;;2.50;0.85;;;12.20;99.90;;;;;;4727558;30;20568;-83
2022/11/11 13:36:15;;;;;;;2.35;1.15;;;12.10;99.90;;;;;;4729844;30;20371;-85
2022/11/11 13:39:01;;;;;;;3.60;0.80;;;12.10;99.90;;;;;;4726569;30;20505;-85
2022/11/11 13:41:52;;;;;;;3.00;0.90;;;12.10;99.90;;;;;;4731654;30;20422;-83
2022/11/11 13:44:45;;;;;;;;;;;12.10;99.90;;;;;;4727935;30;20106;-83
2022/11/11 13:47:42;;;;;;;3.30;0.60;;;12.10;99.90;;;;;;4760208;30;19964;-85
2022/11/11 13:50:32;;;;;;;2.22;0.70;;;12.10;99.90;;;;;;4747876;30;20042;-85
2022/11/11 13:53:31;;;;;;;2.33;0.60;;;12.10;99.90;;;;;;4765795;30;20055;-83
2022/11/11 13:56:24;;;;;;;2.50;0.50;;;12.00;99.90;;;;;;4762456;30;20086;-84
2022/11/11 13:59:22;;;;;;;2.03;0.50;;;12.00;99.90;;;;;;4761254;30;20226;-85
2022/11/11 14:02:25;;;;;;;1.38;0.40;;;12.00;99.90;;;;;;4764898;30;20548;-85
2022/11/11 14:05:09;;;;;;;2.33;0.32;;;12.00;99.90;;;;;;4763565;30;20073;-85
2022/11/11 14:07:56;;;;;;;0.85;0.40;;;11.90;99.90;;;;;;4831496;29;20040;-84
2022/11/11 14:10:51;;;;;;;1.90;0.30;;;12.00;99.90;;;;;;4833365;29;20451;-86
2022/11/11 14:13:37;;;;;;;1.98;0.40;;;11.90;99.90;;;;;;4832375;29;20049;-85
2022/11/11 14:16:34;;;;;;;2.55;0.50;;;12.00;99.90;;;;;;4832344;29;20109;-85
2022/11/11 14:19:17;;;;;;;2.05;0.50;;;11.90;99.90;;;;;;4833840;29;20070;-86
2022/11/11 14:22:24;;;;;;;1.63;0.50;;;11.90;99.90;;;;;;4834219;29;20184;-86
2022/11/11 14:25:25;;;;;;;1.08;0.40;;;11.90;99.90;;;;;;4844659;29;20060;-86
2022/11/11 14:28:29;;;;;;;1.90;0.40;;;11.80;99.90;;;;;;4834657;29;20044;-86
2022/11/11 14:31:13;;;;;;;1.88;0.50;;;11.80;99.90;;;;;;4835599;29;20130;-87
2022/11/11 14:34:30;;;;;;;1.65;0.40;;;11.80;99.90;;;;;;4834866;29;20152;-86
2022/11/11 14:37:20;;;;;;;1.30;0.40;;;11.70;99.90;;;;;;4846296;29;20057;-84
2022/11/11 14:40:11;;;;;;;1.25;0.50;;;11.70;99.90;;;;;;4833567;29;20053;-86
2022/11/11 14:42:57;;;;;;;1.05;0.40;;;11.70;99.90;;;;;;4831754;29;20098;-86
2022/11/11 14:45:44;;;;;;;1.63;0.50;;;11.60;99.90;;;;;;4832187;29;20036;-85
2022/11/11 14:48:51;;;;;;;1.75;0.50;;;11.60;99.90;;;;;;4847115;29;20049;-87
2022/11/11 14:51:50;;;;;;;1.00;0.30;;;11.50;99.90;;;;;;4831900;29;20052;-86
2022/11/11 14:54:52;;;;;;;1.00;0.35;;;11.50;99.90;;;;;;4833809;29;20402;-84
2022/11/11 14:57:54;;;;;;;0.77;0.30;;;11.50;99.90;;;;;;4829938;29;20510;-85
2022/11/11 15:00:58;;;;;;;0.90;0.30;;;11.40;99.90;;;;;;4833123;29;20077;-85
2022/11/11 15:03:49;;;;;;;1.33;0.30;;;11.30;99.90;;;;;;4834527;29;20428;-89
2022/11/11 15:06:47;;;;;;;0.65;0.20;;;11.30;99.90;;;;;;4836633;29;20053;-88
2022/11/11 15:09:50;;;;;;;0.98;0.32;;;11.30;99.90;;;;;;4822957;29;20053;-87
2022/11/11 15:12:55;;;;;;;1.92;0.30;;;11.20;99.90;;;;;;4825741;29;20068;-84
2022/11/11 15:15:45;;;;;;;1.02;0.30;;;11.20;99.90;;;;;;4820456;29;20637;-88
2022/11/11 15:18:55;;;;;;;0.90;0.40;;;11.10;99.90;;;;;;4824823;29;20057;-87
2022/11/11 15:21:59;;;;;;;2.85;0.40;;;11.10;99.90;;;;;;4837645;29;20117;-87
2022/11/11 15:25:15;;;;;;;1.33;0.30;;;11.10;99.90;;;;;;4823757;29;20052;-87
2022/11/11 15:28:34;;;;;;;1.02;0.35;;;11.00;99.90;;;;;;4841377;29;20080;-87
2022/11/11 15:31:40;;;;;;;1.40;0.40;;;10.90;99.90;;;;;;4833658;29;20120;-87
2022/11/11 15:34:43;;;;;;;1.25;0.60;;;10.70;99.90;;;;;;4826967;29;20053;-84
2022/11/11 15:37:29;;;;;;;2.55;0.40;;;10.70;99.90;;;;;;4840174;29;20084;-87
2022/11/11 15:40:21;;;;;;;1.13;0.40;;;10.60;99.90;;;;;;4827767;29;20128;-86
2022/11/11 15:43:10;;;;;;;1.67;0.40;;;10.50;99.90;;;;;;4832382;29;20078;-84
2022/11/11 15:45:59;;;;;;;1.60;0.40;;;10.40;99.90;;;;;;4832281;29;20045;-86
2022/11/11 15:48:44;;;;;;;1.27;0.47;;;10.30;99.90;;;;;;4829460;29;20546;-87
2022/11/11 15:51:32;;;;;;;2.20;0.63;;;10.20;99.90;;;;;;4830001;29;20045;-86
2022/11/11 15:54:17;;;;;;;1.30;0.43;;;10.10;99.90;;;;;;4825603;29;20133;-87
2022/11/11 15:57:28;;;;;;;1.15;0.40;;;10.10;99.90;;;;;;4842245;29;20224;-87
2022/11/11 16:00:32;;;;;;;1.50;0.50;;;10.10;99.90;;;;;;4832059;29;20565;-87
2022/11/11 16:03:41;;;;;;;1.00;0.40;;;10.00;99.90;;;;;;4833300;29;20478;-86
2022/11/11 16:06:27;;;;;;;1.50;0.50;;;9.90;99.90;;;;;;4833203;29;20057;-84
2022/11/11 16:09:14;;;;;;;1.88;0.50;;;9.90;99.90;;;;;;4827657;29;20526;-85
2022/11/11 16:11:58;;;;;;;2.00;0.50;;;9.90;99.90;;;;;;4827946;29;20130;-87
2022/11/11 16:14:47;;;;;;;1.60;0.40;;;9.80;99.90;;;;;;4837790;29;20329;-86
2022/11/11 16:17:40;;;;;;;1.75;0.50;;;9.70;99.90;;;;;;4834964;29;20523;-87
2022/11/11 16:20:30;;;;;;;2.60;0.52;;;9.70;99.90;;;;;;4847000;29;20088;-86
2022/11/11 16:23:17;;;;;;;1.30;0.43;;;9.60;99.90;;;;;;4832998;29;20082;-87
2022/11/11 16:26:03;;;;;;;1.50;0.55;;;9.50;99.90;;;;;;4846768;29;20501;-86
2022/11/11 16:28:51;;;;;;;3.17;0.60;;;9.50;99.90;;;;;;4839397;29;20430;-83
2022/11/11 16:31:38;;;;;;;1.55;0.60;;;9.50;99.90;;;;;;4837125;29;20060;-84
2022/11/11 16:34:28;;;;;;;2.25;0.40;;;9.40;99.90;;;;;;4834436;29;20033;-86
2022/11/11 16:37:14;;;;;;;;;;;9.30;99.90;;;;;;4836531;29;20141;-86
2022/11/11 16:40:31;;;;;;;1.17;0.40;;;9.20;99.90;;;;;;4836669;29;19931;-86
2022/11/11 16:43:20;;;;;;;3.15;0.40;;;9.00;99.90;;;;;;4832631;29;20929;-89
2022/11/11 16:46:23;;;;;;;1.63;0.57;;;9.00;99.90;;;;;;4833932;29;20132;-89
2022/11/11 16:49:28;;;;;;;2.17;0.40;;;8.90;99.90;;;;;;4832342;29;20090;-88
2022/11/11 16:52:17;;;;;;;0.95;0.40;;;8.90;99.90;;;;;;4838089;29;20052;-88
2022/11/11 16:55:01;;;;;;;3.17;0.30;;;8.90;99.90;;;;;;4847393;29;20098;-89
2022/11/11 16:57:46;;;;;;;1.17;0.40;;;8.80;99.90;;;;;;4834398;29;20126;-89
2022/11/11 17:00:31;;;;;;;1.10;0.55;;;8.80;99.90;;;;;;4832903;29;20056;-89
2022/11/11 17:03:21;;;;;;;1.10;0.40;;;8.70;99.90;;;;;;4837020;29;20048;-88
2022/11/11 17:06:07;;;;;;;1.00;0.47;;;8.70;99.90;;;;;;4844877;29;20052;-88
2022/11/11 17:08:51;;;;;;;2.00;0.50;;;8.60;99.90;;;;;;4832105;29;20115;-87
2022/11/11 17:11:39;;;;;;;1.52;0.40;;;8.60;99.90;;;;;;4832648;29;20056;-89
2022/11/11 17:14:24;;;;;;;1.42;0.50;;;8.40;99.90;;;;;;4844380;29;20110;-88
2022/11/11 17:17:09;;;;;;;1.55;0.50;;;8.40;99.90;;;;;;4832497;29;20534;-89
2022/11/11 17:19:59;;;;;;;4.13;0.50;;;8.40;99.90;;;;;;4826306;29;20060;-89
2022/11/11 17:22:55;;;;;;;1.83;0.47;;;8.30;99.90;;;;;;4831181;29;20074;-90
2022/11/11 17:25:39;;;;;;;1.83;0.38;;;8.30;99.90;;;;;;4845061;29;20189;-87
2022/11/11 17:28:23;;;;;;;1.40;0.40;;;8.40;99.90;;;;;;4837814;29;20045;-91
2022/11/11 17:31:09;;;;;;;1.73;0.50;;;8.40;99.90;;;;;;4829789;29;20133;-89
2022/11/11 17:33:53;;;;;;;1.10;0.40;;;8.20;99.90;;;;;;4836375;29;20102;-89
2022/11/11 17:36:37;;;;;;;1.73;0.65;;;8.10;99.90;;;;;;4844949;29;20080;-89
2022/11/11 17:39:21;;;;;;;1.50;0.50;;;8.10;99.90;;;;;;4837970;29;20160;-89
2022/11/11 17:42:06;;;;;;;2.25;0.50;;;8.00;99.90;;;;;;4831196;29;20056;-89
2022/11/11 17:44:50;;;;;;;2.22;0.60;;;7.90;99.90;;;;;;4830980;29;20102;-90
2022/11/11 17:47:34;;;;;;;1.65;0.60;;;7.80;99.90;;;;;;4836479;29;20125;-89
2022/11/11 17:50:18;;;;;;;2.20;0.50;;;7.80;99.90;;;;;;4843077;29;20052;-89
2022/11/11 17:53:04;;;;;;;1.65;0.57;;;7.70;99.90;;;;;;4832530;29;20459;-87
2022/11/11 17:55:49;;;;;;;2.17;0.50;;;7.80;99.90;;;;;;4831914;29;20045;-87
2022/11/11 17:58:37;;;;;;;3.17;0.60;;;7.70;99.90;;;;;;4830951;29;20042;-88
2022/11/11 18:01:21;;;;;;;1.67;0.43;;;7.60;99.90;;;;;;4842474;29;20471;-89
2022/11/11 18:04:05;;;;;;;2.05;0.70;;;7.60;99.90;;;;;;4837956;29;20067;-88
2022/11/11 18:06:50;;;;;;;2.10;0.60;;;7.50;99.90;;;;;;4831872;29;20067;-88
2022/11/11 18:09:34;;;;;;;2.08;0.70;;;7.50;99.90;;;;;;4843011;29;20102;-88
2022/11/11 18:12:18;;;;;;;2.15;0.60;;;7.40;99.90;;;;;;4841046;29;20044;-88
2022/11/11 18:15:03;;;;;;;2.75;0.82;;;7.30;99.90;;;;;;4836243;29;20049;-88
2022/11/11 18:17:47;;;;;;;2.67;0.60;;;7.20;99.90;;;;;;4830273;29;20109;-89
2022/11/11 18:20:36;;;;;;;3.40;0.70;;;7.20;99.90;;;;;;4848696;29;20821;-89
2022/11/11 18:23:20;;;;;;;2.25;0.80;;;7.10;99.90;;;;;;4855637;29;20064;-89
2022/11/11 18:26:06;;;;;;;2.60;0.70;;;7.00;99.90;;;;;;4861599;29;20101;-89
2022/11/11 18:28:51;;;;;;;3.40;0.95;;;7.00;99.90;;;;;;4855505;29;20060;-89
2022/11/11 18:31:35;;;;;;;2.05;0.60;;;6.90;99.90;;;;;;4861782;29;20097;-89
2022/11/11 18:34:20;;;;;;;1.75;0.70;;;6.90;99.90;;;;;;4862078;29;20076;-89
2022/11/11 18:37:04;;;;;;;2.67;0.70;;;6.90;99.90;;;;;;4852876;29;20065;-89
2022/11/11 18:39:48;;;;;;;1.90;0.68;;;6.90;99.90;;;;;;4853078;29;20052;-89
2022/11/11 18:42:32;;;;;;;4.07;0.80;;;6.80;99.90;;;;;;4850978;29;20045;-89
2022/11/11 18:45:17;;;;;;;4.05;0.60;;;6.80;99.90;;;;;;4848731;29;20072;-89
2022/11/11 18:48:01;;;;;;;2.45;0.70;;;6.70;99.90;;;;;;4851452;29;20048;-88
2022/11/11 18:50:53;;;;;;;2.65;0.65;;;6.70;99.90;;;;;;4856142;29;20040;-87
2022/11/11 18:53:39;;;;;;;2.33;0.95;;;6.60;99.90;;;;;;4851371;29;20048;-88
2022/11/11 18:56:25;;;;;;;3.55;0.77;;;6.60;99.90;;;;;;4855086;29;20044;-86
2022/11/11 18:59:10;;;;;;;1.83;0.70;;;6.60;99.90;;;;;;4851635;29;20093;-90
2022/11/11 19:01:54;;;;;;;1.92;0.63;;;6.50;99.90;;;;;;4854303;29;20084;-89
2022/11/11 19:04:38;;;;;;;2.08;0.80;;;6.40;99.90;;;;;;4868284;29;20128;-90
2022/11/11 19:07:22;;;;;;;2.67;0.68;;;6.40;99.90;;;;;;4853230;29;20128;-89
2022/11/11 19:10:06;;;;;;;1.70;0.70;;;6.30;99.90;;;;;;4854752;29;20045;-89
2022/11/11 19:12:51;;;;;;;2.03;0.70;;;6.30;99.90;;;;;;4851401;29;20081;-89
2022/11/11 19:15:35;;;;;;;2.45;0.70;;;6.20;99.90;;;;;;4851672;29;20570;-89
2022/11/11 19:18:20;;;;;;;2.83;0.70;;;6.20;99.90;;;;;;4853065;29;20044;-88
2022/11/11 19:21:19;;;;;;;2.80;0.93;;;6.20;99.90;;;;;;4847405;29;20469;-89
2022/11/11 19:24:06;;;;;;;2.30;1.20;;;6.20;99.90;;;;;;4850408;29;20114;-88
2022/11/11 19:26:51;;;;;;;3.00;1.05;;;6.10;99.90;;;;;;4857922;29;20057;-89
2022/11/11 19:29:36;;;;;;;2.85;1.30;;;6.00;99.90;;;;;;4847708;29;20047;-88
2022/11/11 19:32:20;;;;;;;3.65;1.10;;;6.00;99.90;;;;;;4859226;29;20076;-90
2022/11/11 19:35:04;;;;;;;3.83;2.15;;;5.90;99.90;;;;;;4847642;29;20166;-89
2022/11/11 19:37:48;;;;;;;3.75;1.80;;;5.90;99.90;;;;;;4853934;29;20246;-88
2022/11/11 19:40:32;;;;;;;3.20;1.48;;;5.90;99.90;;;;;;4849120;29;20056;-89
2022/11/11 19:43:16;;;;;;;4.00;1.58;;;5.80;99.90;;;;;;4852011;29;20049;-88
2022/11/11 19:46:03;;;;;;;3.08;2.10;;;5.90;99.90;;;;;;4850663;29;20410;-88
2022/11/11 19:48:51;;;;;;;4.30;2.40;;;5.90;99.90;;;;;;4852699;29;20040;-88
2022/11/11 19:51:35;;;;;;;5.55;2.80;;;5.80;99.90;;;;;;4848557;29;20045;-86
2022/11/11 19:54:20;;;;;;;4.55;2.63;;;5.70;99.90;;;;;;4850444;29;20040;-88
2022/11/11 19:57:04;;;;;;;3.58;1.92;;;5.70;99.90;;;;;;4850819;29;20087;-86
2022/11/11 19:59:48;;;;;;;3.92;1.75;;;5.70;99.90;;;;;;4850652;29;20125;-90
2022/11/11 20:02:32;;;;;;;3.88;1.92;;;5.70;99.90;;;;;;4851418;29;20186;-88
2022/11/11 20:05:16;;;;;;;3.50;1.77;;;5.60;99.90;;;;;;4849567;29;20064;-88
2022/11/11 20:08:02;;;;;;;2.78;1.63;;;5.60;99.90;;;;;;4848814;29;20053;-89
2022/11/11 20:10:46;;;;;;;3.30;1.85;;;5.60;99.90;;;;;;4849533;29;20065;-87
2022/11/11 20:13:30;;;;;;;2.88;1.63;;;5.50;99.90;;;;;;4851471;29;20112;-87
2022/11/11 20:16:14;;;;;;;2.92;1.77;;;5.50;99.90;;;;;;4848496;29;20052;-88
2022/11/11 20:19:00;;;;;;;2.88;1.23;;;5.50;99.90;;;;;;4849162;29;20041;-87
2022/11/11 20:21:44;;;;;;;4.03;1.75;;;5.50;99.90;;;;;;4857225;29;20426;-88
2022/11/11 20:24:28;;;;;;;2.85;1.60;;;5.50;99.90;;;;;;4848078;29;20044;-89
2022/11/11 20:27:12;;;;;;;3.20;1.60;;;5.50;99.90;;;;;;4848090;29;20103;-87
2022/11/11 20:29:56;;;;;;;3.75;1.58;;;5.50;99.90;;;;;;4855755;29;20505;-88
2022/11/11 20:32:43;;;;;;;5.15;2.03;;;5.40;99.90;;;;;;4846019;29;20033;-89
2022/11/11 20:35:28;;;;;;;5.50;2.08;;;5.40;99.90;;;;;;4849582;29;20250;-88
2022/11/11 20:38:12;;;;;;;4.10;1.80;;;5.40;99.90;;;;;;4849924;29;20034;-88
2022/11/11 20:41:03;;;;;;;3.70;1.67;;;5.40;99.90;;;;;;4849336;29;20145;-87
2022/11/11 20:43:47;;;;;;;4.97;1.80;;;5.40;99.90;;;;;;4845370;29;20404;-89
2022/11/11 20:46:32;;;;;;;5.03;2.22;;;5.40;99.90;;;;;;4846554;29;20041;-88
2022/11/11 20:49:17;;;;;;;6.32;1.90;;;5.40;99.90;;;;;;4847448;29;20100;-86
2022/11/11 20:52:01;;;;;;;5.00;2.17;;;5.40;99.90;;;;;;4846102;29;20044;-88
2022/11/11 20:54:45;;;;;;;3.08;1.67;;;5.40;99.90;;;;;;4852191;29;20068;-86
2022/11/11 20:57:32;;;;;;;4.47;2.22;;;5.40;99.90;;;;;;4860567;29;20397;-89
2022/11/11 21:00:16;;;;;;;6.22;1.88;;;5.30;99.90;;;;;;4847376;29;20354;-87
2022/11/11 21:03:01;;;;;;;3.30;1.98;;;5.30;99.90;;;;;;4845408;29;20430;-88
2022/11/11 21:05:46;;;;;;;5.45;2.05;;;5.30;99.90;;;;;;4845771;29;20077;-89
2022/11/11 21:08:32;;;;;;;3.40;1.63;;;5.30;99.90;;;;;;4859261;29;20078;-89
2022/11/11 21:11:18;;;;;;;3.50;1.60;;;5.30;99.90;;;;;;4849712;29;20041;-88
2022/11/11 21:14:02;;;;;;;6.65;2.08;;;5.20;99.90;;;;;;4845885;29;20636;-89
2022/11/11 21:16:47;;;;;;;2.80;1.15;;;5.20;99.90;;;;;;4845895;29;20053;-89
2022/11/11 21:19:31;;;;;;;3.58;1.50;;;5.20;99.90;;;;;;4845454;29;20117;-89
2022/11/11 21:22:15;;;;;;;4.50;2.03;;;5.20;99.90;;;;;;4845158;29;20054;-89
2022/11/11 21:24:59;;;;;;;4.75;1.83;;;5.20;99.90;;;;;;4852154;29;20116;-86
2022/11/11 21:27:43;;;;;;;4.15;2.22;;;5.10;99.90;;;;;;4851080;29;20620;-88
2022/11/11 21:30:27;;;;;;;3.15;1.73;;;5.00;99.90;;;;;;4849608;29;20112;-87
2022/11/11 21:33:11;;;;;;;4.55;1.95;;;5.00;99.90;;;;;;4849392;29;20451;-86
2022/11/11 21:36:03;;;;;;;3.30;1.40;;;5.00;99.90;;;;;;4851924;29;20090;-86
2022/11/11 21:38:48;;;;;;;3.65;1.58;;;5.00;99.90;;;;;;4849483;29;20512;-89
2022/11/11 21:41:35;;;;;;;4.70;2.35;;;5.00;99.90;;;;;;4860330;29;20406;-89
2022/11/11 21:44:19;;;;;;;3.08;1.58;;;5.00;99.90;;;;;;4862317;29;20052;-89
2022/11/11 21:47:04;;;;;;;4.70;1.75;;;5.00;99.90;;;;;;4847214;29;20056;-86
2022/11/11 21:49:48;;;;;;;2.70;1.27;;;5.00;99.90;;;;;;4846457;29;20094;-88
2022/11/11 21:52:31;;;;;;;4.82;1.98;;;4.90;99.90;;;;;;4846910;29;20043;-89
2022/11/11 21:55:15;;;;;;;5.20;1.40;;;5.00;99.90;;;;;;4847628;29;20048;-89
2022/11/11 21:57:59;;;;;;;4.20;1.60;;;4.90;99.90;;;;;;4840113;29;20045;-87
2022/11/11 22:00:45;;;;;;;3.15;1.40;;;4.80;99.90;;;;;;4850256;29;20073;-88
2022/11/11 22:03:31;;;;;;;3.30;1.50;;;4.80;99.90;;;;;;4846570;29;20086;-88
2022/11/11 22:06:15;;;;;;;4.47;1.83;;;4.90;99.90;;;;;;4846930;29;20117;-86
2022/11/11 22:09:00;;;;;;;4.95;2.15;;;4.80;99.90;;;;;;4846971;29;20048;-89
2022/11/11 22:11:44;;;;;;;3.85;1.58;;;4.80;99.90;;;;;;4847547;29;20138;-88
2022/11/11 22:14:28;;;;;;;2.97;1.40;;;4.80;99.90;;;;;;4851877;29;20105;-87
2022/11/11 22:17:13;;;;;;;4.70;1.25;;;4.80;99.90;;;;;;4855966;29;20100;-88
2022/11/11 22:19:57;;;;;;;3.65;1.90;;;4.80;99.90;;;;;;4838577;29;20056;-88
2022/11/11 22:22:41;;;;;;;5.80;1.88;;;4.70;99.90;;;;;;4865968;29;20089;-88
2022/11/11 22:25:25;;;;;;;3.85;1.80;;;4.80;99.90;;;;;;4854671;29;20041;-89
2022/11/11 22:28:09;;;;;;;2.97;1.77;;;4.70;99.90;;;;;;4855313;29;20101;-88
2022/11/11 22:30:53;;;;;;;3.95;1.63;;;4.70;99.90;;;;;;4854085;29;20065;-89
2022/11/11 22:33:40;;;;;;;2.33;1.38;;;4.70;99.90;;;;;;4852283;29;20041;-88
2022/11/11 22:36:24;;;;;;;4.00;1.63;;;4.60;99.90;;;;;;4870234;29;20037;-88
2022/11/11 22:39:09;;;;;;;4.43;1.85;;;4.50;99.90;;;;;;4860812;29;20044;-89
2022/11/11 22:41:53;;;;;;;4.03;1.42;;;4.60;99.90;;;;;;4848929;29;20521;-89
2022/11/11 22:44:37;;;;;;;3.30;1.60;;;4.60;99.90;;;;;;4859453;29;20041;-89
2022/11/11 22:47:21;;;;;;;3.85;1.52;;;4.60;99.90;;;;;;4870208;29;20398;-89
2022/11/11 22:50:06;;;;;;;4.05;1.58;;;4.60;99.90;;;;;;4860694;29;20044;-87
2022/11/11 22:52:51;;;;;;;3.95;1.60;;;4.60;99.90;;;;;;4858643;29;20036;-89
2022/11/11 22:55:35;;;;;;;4.80;1.70;;;4.50;99.90;;;;;;4857810;29;20045;-89
2022/11/11 22:58:19;;;;;;;3.78;1.73;;;4.50;99.90;;;;;;4857148;29;20037;-88
2022/11/11 23:01:08;;;;;;;3.67;1.83;;;4.60;99.90;;;;;;4859473;29;20052;-88
2022/11/11 23:03:53;;;;;;;4.47;1.48;;;4.50;99.90;;;;;;4870820;29;20084;-88
2022/11/11 23:06:39;;;;;;;2.90;1.13;;;4.40;99.90;;;;;;4857916;29;20033;-86
2022/11/11 23:09:24;;;;;;;3.20;1.42;;;4.50;99.90;;;;;;4861840;29;20421;-87